Jump to content


KLM FLIGHT KL3113 FLOWN ON 11-08-2013 BY CAPTAIN JIM BOERMAN

Pilot StatsCaptain Jim Boerman (LDP136) • 4,511.1 total hours • 1,375 total flights [View Logbook]
FLIGHT DETAILS
StatusReceived and approved on 2013-11-08 at 14:11:06
Origin AirportAuckland Intl (NZAA) • Auckland, New Zealand (23 feet MSL)
Filed Flight PlanNZAA BROOK Q277 AA A597 JUNIE R584 UNZ A597 KEC V55 ROKKO G597 JEC B332 KANSU R224 YNJ W39 UGABI B451 HLD A345 TELOK A91 RITEK A920 OMITA G490 PTG R809 TARSA G719 LAGNI B946 BILMI G375 OSKEP G722 KUMEN A714 KOMEK N89 OXOLA N624 KOSKA L990 MARIP Z701 GOBOT UZ701 EEL UN872 PAM EHAM
Destination AirportSchiphol (EHAM) • Amsterdam, Netherlands (-11 feet MSL)
Alternate AirportBrussels National (EBBR) • Brussels, Belgium (184 feet MSL)
AirlineKLM
AircraftBoeing 747-400 (744 / B747-400)
FS Aircraft UsedPMDG - 747-400 New UACO livery
Cruising AltitudeFL340
Distance Flown9,797 nautical miles
Passengers Onboard360 passengers (83.72% full)
DEPARTURE DETAILS
Time Out08:55:18
Taxi Data875,775 lbs total with 383,168 lbs of fuel onboard
Takeoff Data09:09:44 (14 minutes after leaving gate/ramp) • 871,625 lbs total • 8° pitch at 192 knots
Departure METARNZAA 072030Z AUTO 15004KT 110V200 9999 FEW012/// SCT060/// 16/13 Q1007 BECMG FM2200 22010KT
ARRIVAL DETAILS
Landing Data21:42:01 • 498,103 lbs total • 4° pitch doing 127 knots at a rate of -239.14 feet/minute with 4,512 lbs of fuel onboard
Time In21:49:04 (7 minutes after landing)
Ramp Weight497,120 lbs total
Total Fuel Used378,656 lbs
Total Block Time21:51:25 (21.9 hours) while 21 minutes were spent on the ground
Arrival METAREHAM 082025Z VRB02KT 3000 BR FEW005 SCT007 BKN048 09/08 Q1000 NOSIG
MISCELLANEOUS DETAILS
LiveDISPATCH Version4.8.3.1
FS Version
FSUIPC Version3.99
OS VersionWindows XP Service Pack 3 32-bit
Screen Resolution1680 x 1050
Pilot's CommentsNo Comments Reported
FLIGHT MAP